sensor_id;sensor_type;location;lat;lon;timestamp;temperature;humidity
38237;DHT22;50101;49.438;11.098;2023-09-19T00:00:48;23.10;74.20
38237;DHT22;50101;49.438;11.098;2023-09-19T00:03:16;23.20;74.30
38237;DHT22;50101;49.438;11.098;2023-09-19T00:05:43;23.20;74.30
38237;DHT22;50101;49.438;11.098;2023-09-19T00:08:14;23.20;74.30
38237;DHT22;50101;49.438;11.098;2023-09-19T00:10:41;23.20;74.30
38237;DHT22;50101;49.438;11.098;2023-09-19T00:13:09;23.20;74.30
38237;DHT22;50101;49.438;11.098;2023-09-19T00:15:42;23.20;74.20
38237;DHT22;50101;49.438;11.098;2023-09-19T00:18:09;23.20;74.30
38237;DHT22;50101;49.438;11.098;2023-09-19T00:20:36;23.20;74.30
38237;DHT22;50101;49.438;11.098;2023-09-19T00:23:04;23.20;74.30
38237;DHT22;50101;49.438;11.098;2023-09-19T00:25:31;23.20;74.30
38237;DHT22;50101;49.438;11.098;2023-09-19T00:28:02;23.20;74.20
38237;DHT22;50101;49.438;11.098;2023-09-19T00:30:29;23.20;74.20
38237;DHT22;50101;49.438;11.098;2023-09-19T00:32:55;23.20;74.10
38237;DHT22;50101;49.438;11.098;2023-09-19T00:35:22;23.20;74.20
38237;DHT22;50101;49.438;11.098;2023-09-19T00:37:52;23.20;74.20
38237;DHT22;50101;49.438;11.098;2023-09-19T00:40:19;23.20;74.20
38237;DHT22;50101;49.438;11.098;2023-09-19T00:42:48;23.20;74.20
38237;DHT22;50101;49.438;11.098;2023-09-19T00:45:16;23.10;74.10
38237;DHT22;50101;49.438;11.098;2023-09-19T00:47:46;23.10;74.10
38237;DHT22;50101;49.438;11.098;2023-09-19T00:50:19;23.20;74.10
38237;DHT22;50101;49.438;11.098;2023-09-19T00:52:47;23.10;74.10
38237;DHT22;50101;49.438;11.098;2023-09-19T00:55:15;23.10;74.10
38237;DHT22;50101;49.438;11.098;2023-09-19T00:57:42;23.20;74.10
38237;DHT22;50101;49.438;11.098;2023-09-19T01:00:11;23.10;74.10
38237;DHT22;50101;49.438;11.098;2023-09-19T01:02:42;23.10;74.00
38237;DHT22;50101;49.438;11.098;2023-09-19T01:05:10;23.10;74.00
38237;DHT22;50101;49.438;11.098;2023-09-19T01:07:37;23.10;74.00
38237;DHT22;50101;49.438;11.098;2023-09-19T01:10:09;23.10;74.00
38237;DHT22;50101;49.438;11.098;2023-09-19T01:13:02;23.20;74.10
38237;DHT22;50101;49.438;11.098;2023-09-19T01:18:47;23.10;74.00
38237;DHT22;50101;49.438;11.098;2023-09-19T01:21:32;23.10;74.00
38237;DHT22;50101;49.438;11.098;2023-09-19T01:29:46;23.10;74.00
38237;DHT22;50101;49.438;11.098;2023-09-19T01:32:18;23.10;74.00
38237;DHT22;50101;49.438;11.098;2023-09-19T01:34:51;23.10;74.00
38237;DHT22;50101;49.438;11.098;2023-09-19T01:37:21;23.10;74.00
38237;DHT22;50101;49.438;11.098;2023-09-19T01:40:00;23.10;73.90
38237;DHT22;50101;49.438;11.098;2023-09-19T01:48:40;23.10;73.90
38237;DHT22;50101;49.438;11.098;2023-09-19T01:54:20;23.10;73.90
38237;DHT22;50101;49.438;11.098;2023-09-19T01:56:59;23.10;73.90
38237;DHT22;50101;49.438;11.098;2023-09-19T01:59:35;23.10;73.90
38237;DHT22;50101;49.438;11.098;2023-09-19T02:02:05;23.10;73.90
38237;DHT22;50101;49.438;11.098;2023-09-19T02:04:33;23.10;73.90
38237;DHT22;50101;49.438;11.098;2023-09-19T02:07:02;23.10;73.80
38237;DHT22;50101;49.438;11.098;2023-09-19T02:09:29;23.10;73.80
38237;DHT22;50101;49.438;11.098;2023-09-19T02:11:56;23.10;73.90
38237;DHT22;50101;49.438;11.098;2023-09-19T02:14:23;23.10;73.80
38237;DHT22;50101;49.438;11.098;2023-09-19T02:16:49;23.10;73.80
38237;DHT22;50101;49.438;11.098;2023-09-19T02:19:17;23.10;73.80
38237;DHT22;50101;49.438;11.098;2023-09-19T02:21:44;23.10;74.50
38237;DHT22;50101;49.438;11.098;2023-09-19T02:24:10;23.10;73.80
38237;DHT22;50101;49.438;11.098;2023-09-19T02:26:39;23.10;73.80
38237;DHT22;50101;49.438;11.098;2023-09-19T02:29:05;23.10;73.80
38237;DHT22;50101;49.438;11.098;2023-09-19T02:31:32;23.10;73.20
38237;DHT22;50101;49.438;11.098;2023-09-19T02:33:59;23.10;73.80
38237;DHT22;50101;49.438;11.098;2023-09-19T02:36:26;23.10;73.80
38237;DHT22;50101;49.438;11.098;2023-09-19T02:38:53;23.10;73.80
38237;DHT22;50101;49.438;11.098;2023-09-19T02:41:20;23.10;73.80
38237;DHT22;50101;49.438;11.098;2023-09-19T02:43:46;23.10;73.80
38237;DHT22;50101;49.438;11.098;2023-09-19T02:46:14;23.10;73.70
38237;DHT22;50101;49.438;11.098;2023-09-19T02:48:41;23.10;73.80
38237;DHT22;50101;49.438;11.098;2023-09-19T02:51:08;23.10;73.80
38237;DHT22;50101;49.438;11.098;2023-09-19T02:53:35;23.10;73.70
38237;DHT22;50101;49.438;11.098;2023-09-19T02:56:02;23.10;73.70
38237;DHT22;50101;49.438;11.098;2023-09-19T02:58:30;23.10;73.70
38237;DHT22;50101;49.438;11.098;2023-09-19T03:01:09;23.10;73.70
38237;DHT22;50101;49.438;11.098;2023-09-19T03:03:38;23.10;73.70
38237;DHT22;50101;49.438;11.098;2023-09-19T03:06:06;23.10;73.70
38237;DHT22;50101;49.438;11.098;2023-09-19T03:08:36;23.10;73.70
38237;DHT22;50101;49.438;11.098;2023-09-19T03:11:04;23.10;73.70
38237;DHT22;50101;49.438;11.098;2023-09-19T03:13:32;23.10;73.60
38237;DHT22;50101;49.438;11.098;2023-09-19T03:15:59;23.10;73.60
38237;DHT22;50101;49.438;11.098;2023-09-19T03:18:26;23.10;73.60
38237;DHT22;50101;49.438;11.098;2023-09-19T03:20:54;23.10;73.70
38237;DHT22;50101;49.438;11.098;2023-09-19T03:23:22;23.10;73.60
38237;DHT22;50101;49.438;11.098;2023-09-19T03:25:49;23.10;73.60
38237;DHT22;50101;49.438;11.098;2023-09-19T03:28:16;23.10;73.60
38237;DHT22;50101;49.438;11.098;2023-09-19T03:30:43;23.10;73.60
38237;DHT22;50101;49.438;11.098;2023-09-19T03:33:12;23.10;73.60
38237;DHT22;50101;49.438;11.098;2023-09-19T03:35:39;23.10;73.60
38237;DHT22;50101;49.438;11.098;2023-09-19T03:38:06;23.10;73.60
38237;DHT22;50101;49.438;11.098;2023-09-19T03:40:33;23.10;73.60
38237;DHT22;50101;49.438;11.098;2023-09-19T03:43:03;23.10;73.60
38237;DHT22;50101;49.438;11.098;2023-09-19T03:45:30;23.10;73.60
38237;DHT22;50101;49.438;11.098;2023-09-19T03:47:57;23.10;73.60
38237;DHT22;50101;49.438;11.098;2023-09-19T03:50:24;23.10;73.60
38237;DHT22;50101;49.438;11.098;2023-09-19T03:52:50;23.10;73.60
38237;DHT22;50101;49.438;11.098;2023-09-19T03:55:22;23.10;73.60
38237;DHT22;50101;49.438;11.098;2023-09-19T03:57:48;23.10;73.60
38237;DHT22;50101;49.438;11.098;2023-09-19T04:00:16;23.10;73.60
38237;DHT22;50101;49.438;11.098;2023-09-19T04:02:48;23.10;73.60
38237;DHT22;50101;49.438;11.098;2023-09-19T04:05:15;23.10;73.60
38237;DHT22;50101;49.438;11.098;2023-09-19T04:07:41;23.10;73.60
38237;DHT22;50101;49.438;11.098;2023-09-19T04:10:09;23.10;73.60
38237;DHT22;50101;49.438;11.098;2023-09-19T04:12:38;23.10;73.50
38237;DHT22;50101;49.438;11.098;2023-09-19T04:15:05;23.10;73.60
38237;DHT22;50101;49.438;11.098;2023-09-19T04:17:33;23.10;73.50
38237;DHT22;50101;49.438;11.098;2023-09-19T04:20:00;23.10;73.50
38237;DHT22;50101;49.438;11.098;2023-09-19T04:22:26;23.10;73.50
38237;DHT22;50101;49.438;11.098;2023-09-19T04:24:53;23.10;73.50
38237;DHT22;50101;49.438;11.098;2023-09-19T04:27:20;23.10;73.50
38237;DHT22;50101;49.438;11.098;2023-09-19T04:29:47;23.10;73.40
38237;DHT22;50101;49.438;11.098;2023-09-19T04:32:13;23.10;73.40
38237;DHT22;50101;49.438;11.098;2023-09-19T04:34:40;23.10;73.40
38237;DHT22;50101;49.438;11.098;2023-09-19T04:37:07;23.10;73.40
38237;DHT22;50101;49.438;11.098;2023-09-19T04:39:34;23.10;73.10
38237;DHT22;50101;49.438;11.098;2023-09-19T04:42:01;23.10;73.10
38237;DHT22;50101;49.438;11.098;2023-09-19T04:44:27;23.10;73.20
38237;DHT22;50101;49.438;11.098;2023-09-19T04:46:54;23.10;73.30
38237;DHT22;50101;49.438;11.098;2023-09-19T04:49:21;23.10;73.30
38237;DHT22;50101;49.438;11.098;2023-09-19T04:51:48;23.10;73.30
38237;DHT22;50101;49.438;11.098;2023-09-19T04:54:15;23.10;73.40
38237;DHT22;50101;49.438;11.098;2023-09-19T04:56:42;23.10;73.20
38237;DHT22;50101;49.438;11.098;2023-09-19T04:59:09;23.10;72.70
38237;DHT22;50101;49.438;11.098;2023-09-19T05:01:37;23.00;72.40
38237;DHT22;50101;49.438;11.098;2023-09-19T05:04:04;23.00;72.50
38237;DHT22;50101;49.438;11.098;2023-09-19T05:06:31;23.00;72.60
38237;DHT22;50101;49.438;11.098;2023-09-19T05:09:02;23.00;72.20
38237;DHT22;50101;49.438;11.098;2023-09-19T05:11:31;23.00;72.50
38237;DHT22;50101;49.438;11.098;2023-09-19T05:13:58;23.00;72.40
38237;DHT22;50101;49.438;11.098;2023-09-19T05:16:29;23.00;72.20
38237;DHT22;50101;49.438;11.098;2023-09-19T05:18:58;23.00;72.10
38237;DHT22;50101;49.438;11.098;2023-09-19T05:21:26;23.00;71.80
38237;DHT22;50101;49.438;11.098;2023-09-19T05:23:57;23.00;71.90
38237;DHT22;50101;49.438;11.098;2023-09-19T05:26:24;23.00;71.90
38237;DHT22;50101;49.438;11.098;2023-09-19T05:28:51;23.00;71.80
38237;DHT22;50101;49.438;11.098;2023-09-19T05:31:19;23.00;71.80
38237;DHT22;50101;49.438;11.098;2023-09-19T05:33:47;23.10;72.40
38237;DHT22;50101;49.438;11.098;2023-09-19T05:36:13;23.10;72.20
38237;DHT22;50101;49.438;11.098;2023-09-19T05:38:43;23.10;72.20
38237;DHT22;50101;49.438;11.098;2023-09-19T05:41:11;23.10;72.20
38237;DHT22;50101;49.438;11.098;2023-09-19T05:43:40;23.10;72.20
38237;DHT22;50101;49.438;11.098;2023-09-19T05:46:08;23.10;72.20
38237;DHT22;50101;49.438;11.098;2023-09-19T05:48:35;23.10;72.30
38237;DHT22;50101;49.438;11.098;2023-09-19T05:51:02;23.10;72.80
38237;DHT22;50101;49.438;11.098;2023-09-19T05:53:29;23.20;72.70
38237;DHT22;50101;49.438;11.098;2023-09-19T05:55:56;23.10;72.10
38237;DHT22;50101;49.438;11.098;2023-09-19T05:58:23;23.10;72.00
38237;DHT22;50101;49.438;11.098;2023-09-19T06:00:50;23.10;72.20
38237;DHT22;50101;49.438;11.098;2023-09-19T06:03:16;23.10;72.30
38237;DHT22;50101;49.438;11.098;2023-09-19T06:05:45;23.10;72.30
38237;DHT22;50101;49.438;11.098;2023-09-19T06:08:12;23.10;72.50
38237;DHT22;50101;49.438;11.098;2023-09-19T06:10:42;23.10;72.50
38237;DHT22;50101;49.438;11.098;2023-09-19T06:13:09;23.10;72.50
38237;DHT22;50101;49.438;11.098;2023-09-19T06:15:37;23.10;72.50
38237;DHT22;50101;49.438;11.098;2023-09-19T06:18:04;23.10;72.50
38237;DHT22;50101;49.438;11.098;2023-09-19T06:20:31;23.10;72.60
38237;DHT22;50101;49.438;11.098;2023-09-19T06:22:59;23.10;72.40
38237;DHT22;50101;49.438;11.098;2023-09-19T06:25:28;23.10;72.50
38237;DHT22;50101;49.438;11.098;2023-09-19T06:27:55;23.10;72.60
38237;DHT22;50101;49.438;11.098;2023-09-19T06:30:24;23.10;72.10
38237;DHT22;50101;49.438;11.098;2023-09-19T06:32:56;23.10;72.40
38237;DHT22;50101;49.438;11.098;2023-09-19T06:35:23;23.10;72.50
38237;DHT22;50101;49.438;11.098;2023-09-19T06:37:50;23.10;72.30
38237;DHT22;50101;49.438;11.098;2023-09-19T06:40:18;23.10;72.40
38237;DHT22;50101;49.438;11.098;2023-09-19T06:42:51;23.20;72.40
38237;DHT22;50101;49.438;11.098;2023-09-19T06:45:19;23.20;72.40
38237;DHT22;50101;49.438;11.098;2023-09-19T06:47:47;23.20;72.50
38237;DHT22;50101;49.438;11.098;2023-09-19T06:50:18;23.20;72.70
38237;DHT22;50101;49.438;11.098;2023-09-19T06:52:46;23.20;72.30
38237;DHT22;50101;49.438;11.098;2023-09-19T06:55:17;23.20;72.40
38237;DHT22;50101;49.438;11.098;2023-09-19T06:57:47;23.20;72.40
38237;DHT22;50101;49.438;11.098;2023-09-19T07:00:15;23.20;73.00
38237;DHT22;50101;49.438;11.098;2023-09-19T07:02:42;23.10;71.60
38237;DHT22;50101;49.438;11.098;2023-09-19T07:05:09;22.90;71.00
38237;DHT22;50101;49.438;11.098;2023-09-19T07:07:36;22.80;71.40
38237;DHT22;50101;49.438;11.098;2023-09-19T07:10:03;22.80;71.40
38237;DHT22;50101;49.438;11.098;2023-09-19T07:12:32;22.70;71.50
38237;DHT22;50101;49.438;11.098;2023-09-19T07:15:01;22.60;71.70
38237;DHT22;50101;49.438;11.098;2023-09-19T07:17:28;22.60;71.10
38237;DHT22;50101;49.438;11.098;2023-09-19T07:19:56;22.60;70.60
38237;DHT22;50101;49.438;11.098;2023-09-19T07:22:26;22.60;71.00
38237;DHT22;50101;49.438;11.098;2023-09-19T07:24:53;22.50;70.90
38237;DHT22;50101;49.438;11.098;2023-09-19T07:27:19;22.50;71.10
38237;DHT22;50101;49.438;11.098;2023-09-19T07:29:46;22.40;70.80
38237;DHT22;50101;49.438;11.098;2023-09-19T07:32:17;22.40;69.70
38237;DHT22;50101;49.438;11.098;2023-09-19T07:34:44;22.40;70.00
38237;DHT22;50101;49.438;11.098;2023-09-19T07:37:12;22.30;69.60
38237;DHT22;50101;49.438;11.098;2023-09-19T07:39:41;22.40;69.70
38237;DHT22;50101;49.438;11.098;2023-09-19T07:42:08;22.30;69.20
38237;DHT22;50101;49.438;11.098;2023-09-19T07:44:37;22.30;69.00
38237;DHT22;50101;49.438;11.098;2023-09-19T07:47:04;22.30;68.50
38237;DHT22;50101;49.438;11.098;2023-09-19T07:49:31;22.30;68.80
38237;DHT22;50101;49.438;11.098;2023-09-19T07:51:58;22.30;68.60
38237;DHT22;50101;49.438;11.098;2023-09-19T07:54:25;22.40;68.00
38237;DHT22;50101;49.438;11.098;2023-09-19T07:56:53;22.40;71.20
38237;DHT22;50101;49.438;11.098;2023-09-19T07:59:20;22.60;71.00
38237;DHT22;50101;49.438;11.098;2023-09-19T08:01:50;22.80;71.20
38237;DHT22;50101;49.438;11.098;2023-09-19T08:04:17;22.90;71.00
38237;DHT22;50101;49.438;11.098;2023-09-19T08:06:43;22.90;70.80
38237;DHT22;50101;49.438;11.098;2023-09-19T08:09:11;23.00;71.00
38237;DHT22;50101;49.438;11.098;2023-09-19T08:11:40;23.00;70.80
38237;DHT22;50101;49.438;11.098;2023-09-19T08:14:07;23.00;70.90
38237;DHT22;50101;49.438;11.098;2023-09-19T08:16:35;23.00;70.90
38237;DHT22;50101;49.438;11.098;2023-09-19T08:19:02;23.00;70.90
38237;DHT22;50101;49.438;11.098;2023-09-19T08:21:28;23.10;70.90
38237;DHT22;50101;49.438;11.098;2023-09-19T08:23:56;23.10;71.00
38237;DHT22;50101;49.438;11.098;2023-09-19T08:26:23;23.10;71.10
38237;DHT22;50101;49.438;11.098;2023-09-19T08:28:51;23.10;71.10
38237;DHT22;50101;49.438;11.098;2023-09-19T08:31:18;23.10;71.20
38237;DHT22;50101;49.438;11.098;2023-09-19T08:33:45;23.10;71.20
38237;DHT22;50101;49.438;11.098;2023-09-19T08:36:15;23.10;71.20
38237;DHT22;50101;49.438;11.098;2023-09-19T08:38:42;23.10;71.50
38237;DHT22;50101;49.438;11.098;2023-09-19T08:41:09;23.20;71.70
38237;DHT22;50101;49.438;11.098;2023-09-19T08:43:36;23.20;71.60
38237;DHT22;50101;49.438;11.098;2023-09-19T08:46:12;23.30;71.70
38237;DHT22;50101;49.438;11.098;2023-09-19T08:49:19;23.30;71.70
38237;DHT22;50101;49.438;11.098;2023-09-19T08:52:01;23.30;71.70
38237;DHT22;50101;49.438;11.098;2023-09-19T08:54:37;23.30;71.70
38237;DHT22;50101;49.438;11.098;2023-09-19T08:57:07;23.30;71.80
38237;DHT22;50101;49.438;11.098;2023-09-19T08:59:41;23.30;71.70
38237;DHT22;50101;49.438;11.098;2023-09-19T09:02:14;23.30;71.90
38237;DHT22;50101;49.438;11.098;2023-09-19T09:04:43;23.30;71.90
38237;DHT22;50101;49.438;11.098;2023-09-19T09:07:12;23.30;72.10
38237;DHT22;50101;49.438;11.098;2023-09-19T09:09:45;23.20;72.10
38237;DHT22;50101;49.438;11.098;2023-09-19T09:12:13;23.30;72.10
38237;DHT22;50101;49.438;11.098;2023-09-19T09:14:44;23.30;72.30
38237;DHT22;50101;49.438;11.098;2023-09-19T09:17:11;23.30;72.40
38237;DHT22;50101;49.438;11.098;2023-09-19T09:19:38;23.30;72.20
38237;DHT22;50101;49.438;11.098;2023-09-19T09:22:09;23.30;72.30
38237;DHT22;50101;49.438;11.098;2023-09-19T09:24:37;23.30;72.40
38237;DHT22;50101;49.438;11.098;2023-09-19T09:27:06;23.30;72.40
38237;DHT22;50101;49.438;11.098;2023-09-19T09:29:45;23.30;72.70
38237;DHT22;50101;49.438;11.098;2023-09-19T09:32:27;23.30;72.40
38237;DHT22;50101;49.438;11.098;2023-09-19T09:34:56;23.30;72.40
38237;DHT22;50101;49.438;11.098;2023-09-19T09:37:28;23.30;72.60
38237;DHT22;50101;49.438;11.098;2023-09-19T09:40:02;23.40;72.60
38237;DHT22;50101;49.438;11.098;2023-09-19T09:42:40;23.30;72.60
38237;DHT22;50101;49.438;11.098;2023-09-19T09:45:14;23.30;72.60
38237;DHT22;50101;49.438;11.098;2023-09-19T09:47:46;23.40;72.70
38237;DHT22;50101;49.438;11.098;2023-09-19T09:50:33;23.30;72.50
38237;DHT22;50101;49.438;11.098;2023-09-19T09:53:24;23.30;72.70
38237;DHT22;50101;49.438;11.098;2023-09-19T09:56:04;23.40;72.90
38237;DHT22;50101;49.438;11.098;2023-09-19T09:58:35;23.40;72.90
38237;DHT22;50101;49.438;11.098;2023-09-19T10:01:03;23.40;72.50
38237;DHT22;50101;49.438;11.098;2023-09-19T10:03:39;23.40;72.40
38237;DHT22;50101;49.438;11.098;2023-09-19T10:06:10;23.40;72.60
38237;DHT22;50101;49.438;11.098;2023-09-19T10:09:09;23.40;72.50
38237;DHT22;50101;49.438;11.098;2023-09-19T10:11:47;23.40;72.50
38237;DHT22;50101;49.438;11.098;2023-09-19T10:14:20;23.40;72.40
38237;DHT22;50101;49.438;11.098;2023-09-19T10:16:53;23.40;72.20
38237;DHT22;50101;49.438;11.098;2023-09-19T10:22:02;23.30;70.10
38237;DHT22;50101;49.438;11.098;2023-09-19T10:24:33;23.20;70.20
38237;DHT22;50101;49.438;11.098;2023-09-19T10:27:11;23.30;71.10
38237;DHT22;50101;49.438;11.098;2023-09-19T10:29:39;23.30;70.90
38237;DHT22;50101;49.438;11.098;2023-09-19T10:32:07;23.30;71.10
38237;DHT22;50101;49.438;11.098;2023-09-19T10:34:36;23.30;71.10
38237;DHT22;50101;49.438;11.098;2023-09-19T10:37:04;23.40;71.30
38237;DHT22;50101;49.438;11.098;2023-09-19T10:39:32;23.40;71.30
38237;DHT22;50101;49.438;11.098;2023-09-19T10:42:02;23.40;71.30
38237;DHT22;50101;49.438;11.098;2023-09-19T10:44:33;23.40;71.30
38237;DHT22;50101;49.438;11.098;2023-09-19T10:47:00;23.40;71.50
38237;DHT22;50101;49.438;11.098;2023-09-19T10:49:27;23.40;71.60
38237;DHT22;50101;49.438;11.098;2023-09-19T10:51:57;23.40;71.70
38237;DHT22;50101;49.438;11.098;2023-09-19T10:54:31;23.40;71.80
38237;DHT22;50101;49.438;11.098;2023-09-19T10:57:01;23.40;71.80
38237;DHT22;50101;49.438;11.098;2023-09-19T10:59:31;23.40;71.80
38237;DHT22;50101;49.438;11.098;2023-09-19T11:02:16;23.40;71.80
38237;DHT22;50101;49.438;11.098;2023-09-19T11:04:44;23.50;72.00
38237;DHT22;50101;49.438;11.098;2023-09-19T11:07:15;23.50;71.90
38237;DHT22;50101;49.438;11.098;2023-09-19T11:09:54;23.50;71.90
38237;DHT22;50101;49.438;11.098;2023-09-19T11:14:58;23.50;71.90
38237;DHT22;50101;49.438;11.098;2023-09-19T11:17:38;23.50;71.90
38237;DHT22;50101;49.438;11.098;2023-09-19T11:30:50;23.50;72.70
38237;DHT22;50101;49.438;11.098;2023-09-19T11:43:49;23.50;71.90
38237;DHT22;50101;49.438;11.098;2023-09-19T11:46:21;23.60;72.00
38237;DHT22;50101;49.438;11.098;2023-09-19T11:48:49;23.60;72.10
38237;DHT22;50101;49.438;11.098;2023-09-19T11:51:21;23.60;72.00
38237;DHT22;50101;49.438;11.098;2023-09-19T11:53:57;23.60;72.00
38237;DHT22;50101;49.438;11.098;2023-09-19T11:56:27;23.60;72.00
38237;DHT22;50101;49.438;11.098;2023-09-19T11:58:58;23.60;71.90
38237;DHT22;50101;49.438;11.098;2023-09-19T12:01:31;23.60;71.80
38237;DHT22;50101;49.438;11.098;2023-09-19T12:04:01;23.70;72.00
38237;DHT22;50101;49.438;11.098;2023-09-19T12:06:31;23.70;72.10
38237;DHT22;50101;49.438;11.098;2023-09-19T12:08:59;23.70;72.00
38237;DHT22;50101;49.438;11.098;2023-09-19T12:11:30;23.70;72.00
38237;DHT22;50101;49.438;11.098;2023-09-19T12:14:01;23.70;72.10
38237;DHT22;50101;49.438;11.098;2023-09-19T12:16:29;23.80;72.30
38237;DHT22;50101;49.438;11.098;2023-09-19T12:19:18;23.80;72.30
38237;DHT22;50101;49.438;11.098;2023-09-19T12:22:03;23.80;72.30
38237;DHT22;50101;49.438;11.098;2023-09-19T12:24:35;23.80;72.30
38237;DHT22;50101;49.438;11.098;2023-09-19T12:27:06;23.70;72.20
38237;DHT22;50101;49.438;11.098;2023-09-19T12:29:49;23.70;72.40
38237;DHT22;50101;49.438;11.098;2023-09-19T12:32:17;23.70;72.60
38237;DHT22;50101;49.438;11.098;2023-09-19T12:34:52;23.80;72.80
38237;DHT22;50101;49.438;11.098;2023-09-19T12:37:21;24.10;73.20
38237;DHT22;50101;49.438;11.098;2023-09-19T12:39:51;23.80;72.90
38237;DHT22;50101;49.438;11.098;2023-09-19T12:42:24;23.80;72.90
38237;DHT22;50101;49.438;11.098;2023-09-19T12:44:55;23.80;73.30
38237;DHT22;50101;49.438;11.098;2023-09-19T12:47:24;23.80;73.20
38237;DHT22;50101;49.438;11.098;2023-09-19T12:50:17;23.80;73.60
38237;DHT22;50101;49.438;11.098;2023-09-19T12:52:49;23.80;73.50
38237;DHT22;50101;49.438;11.098;2023-09-19T12:55:24;23.80;73.90
38237;DHT22;50101;49.438;11.098;2023-09-19T12:58:09;23.80;73.70
38237;DHT22;50101;49.438;11.098;2023-09-19T13:00:40;23.80;73.60
38237;DHT22;50101;49.438;11.098;2023-09-19T13:03:19;23.90;74.20
38237;DHT22;50101;49.438;11.098;2023-09-19T13:06:02;23.70;67.10
38237;DHT22;50101;49.438;11.098;2023-09-19T13:08:35;23.50;66.60
38237;DHT22;50101;49.438;11.098;2023-09-19T13:11:11;23.40;65.50
38237;DHT22;50101;49.438;11.098;2023-09-19T13:13:45;23.40;66.60
38237;DHT22;50101;49.438;11.098;2023-09-19T13:16:16;23.30;66.10
38237;DHT22;50101;49.438;11.098;2023-09-19T13:18:52;23.20;64.80
38237;DHT22;50101;49.438;11.098;2023-09-19T13:21:39;23.20;61.50
38237;DHT22;50101;49.438;11.098;2023-09-19T13:24:24;24.00;62.60
38237;DHT22;50101;49.438;11.098;2023-09-19T13:26:54;22.90;59.90
38237;DHT22;50101;49.438;11.098;2023-09-19T13:29:22;22.90;60.60
38237;DHT22;50101;49.438;11.098;2023-09-19T13:31:51;23.00;61.90
38237;DHT22;50101;49.438;11.098;2023-09-19T13:34:20;23.10;63.10
38237;DHT22;50101;49.438;11.098;2023-09-19T13:36:47;23.20;65.40
38237;DHT22;50101;49.438;11.098;2023-09-19T13:39:17;23.20;63.30
38237;DHT22;50101;49.438;11.098;2023-09-19T13:41:45;23.20;63.60
38237;DHT22;50101;49.438;11.098;2023-09-19T13:44:13;23.30;63.80
38237;DHT22;50101;49.438;11.098;2023-09-19T13:46:40;23.30;62.10
38237;DHT22;50101;49.438;11.098;2023-09-19T13:49:10;23.20;61.50
38237;DHT22;50101;49.438;11.098;2023-09-19T13:51:38;23.10;60.90
38237;DHT22;50101;49.438;11.098;2023-09-19T13:54:05;23.00;60.60
38237;DHT22;50101;49.438;11.098;2023-09-19T13:56:32;23.00;61.00
38237;DHT22;50101;49.438;11.098;2023-09-19T13:59:00;23.00;60.60
38237;DHT22;50101;49.438;11.098;2023-09-19T14:01:26;23.00;60.80
38237;DHT22;50101;49.438;11.098;2023-09-19T14:03:54;23.00;61.00
38237;DHT22;50101;49.438;11.098;2023-09-19T14:06:23;23.00;61.00
38237;DHT22;50101;49.438;11.098;2023-09-19T14:08:50;22.90;60.20
38237;DHT22;50101;49.438;11.098;2023-09-19T14:11:17;23.00;61.50
38237;DHT22;50101;49.438;11.098;2023-09-19T14:13:44;23.20;66.90
38237;DHT22;50101;49.438;11.098;2023-09-19T14:16:16;23.40;66.90
38237;DHT22;50101;49.438;11.098;2023-09-19T14:18:47;23.50;66.70
38237;DHT22;50101;49.438;11.098;2023-09-19T14:21:14;23.50;66.60
38237;DHT22;50101;49.438;11.098;2023-09-19T14:23:41;23.50;66.80
38237;DHT22;50101;49.438;11.098;2023-09-19T14:26:10;23.60;67.10
38237;DHT22;50101;49.438;11.098;2023-09-19T14:28:36;23.60;66.90
38237;DHT22;50101;49.438;11.098;2023-09-19T14:31:09;23.60;67.20
38237;DHT22;50101;49.438;11.098;2023-09-19T14:33:37;23.70;67.40
38237;DHT22;50101;49.438;11.098;2023-09-19T14:36:09;23.60;67.30
38237;DHT22;50101;49.438;11.098;2023-09-19T14:38:37;23.60;67.60
38237;DHT22;50101;49.438;11.098;2023-09-19T14:41:06;23.60;67.70
38237;DHT22;50101;49.438;11.098;2023-09-19T14:43:33;23.60;67.90
38237;DHT22;50101;49.438;11.098;2023-09-19T14:46:06;23.60;68.00
38237;DHT22;50101;49.438;11.098;2023-09-19T14:48:34;23.70;68.20
38237;DHT22;50101;49.438;11.098;2023-09-19T14:51:06;23.70;68.20
38237;DHT22;50101;49.438;11.098;2023-09-19T14:53:35;23.60;68.30
38237;DHT22;50101;49.438;11.098;2023-09-19T14:56:05;23.60;68.50
38237;DHT22;50101;49.438;11.098;2023-09-19T14:58:32;23.70;68.80
38237;DHT22;50101;49.438;11.098;2023-09-19T15:01:09;23.70;68.90
38237;DHT22;50101;49.438;11.098;2023-09-19T15:03:40;23.70;69.00
38237;DHT22;50101;49.438;11.098;2023-09-19T15:06:12;23.60;68.90
38237;DHT22;50101;49.438;11.098;2023-09-19T15:08:41;23.70;69.00
38237;DHT22;50101;49.438;11.098;2023-09-19T15:11:12;23.60;69.20
38237;DHT22;50101;49.438;11.098;2023-09-19T15:13:40;23.60;69.30
38237;DHT22;50101;49.438;11.098;2023-09-19T15:16:08;23.60;69.50
38237;DHT22;50101;49.438;11.098;2023-09-19T15:18:37;23.70;69.50
38237;DHT22;50101;49.438;11.098;2023-09-19T15:21:05;23.60;69.60
38237;DHT22;50101;49.438;11.098;2023-09-19T15:23:33;23.70;69.80
38237;DHT22;50101;49.438;11.098;2023-09-19T15:26:01;23.60;69.80
38237;DHT22;50101;49.438;11.098;2023-09-19T15:28:28;23.60;69.80
38237;DHT22;50101;49.438;11.098;2023-09-19T15:31:06;23.70;69.50
38237;DHT22;50101;49.438;11.098;2023-09-19T15:33:34;23.60;70.00
38237;DHT22;50101;49.438;11.098;2023-09-19T15:36:08;23.60;70.10
38237;DHT22;50101;49.438;11.098;2023-09-19T15:43:55;23.60;70.20
38237;DHT22;50101;49.438;11.098;2023-09-19T15:46:22;23.60;70.30
38237;DHT22;50101;49.438;11.098;2023-09-19T15:48:49;23.60;70.40
38237;DHT22;50101;49.438;11.098;2023-09-19T15:51:17;23.60;71.00
38237;DHT22;50101;49.438;11.098;2023-09-19T15:53:45;23.60;70.40
38237;DHT22;50101;49.438;11.098;2023-09-19T15:56:13;23.60;70.20
38237;DHT22;50101;49.438;11.098;2023-09-19T15:58:47;23.60;70.50
38237;DHT22;50101;49.438;11.098;2023-09-19T16:01:14;23.60;70.30
38237;DHT22;50101;49.438;11.098;2023-09-19T16:03:47;23.60;70.40
38237;DHT22;50101;49.438;11.098;2023-09-19T16:06:16;23.60;70.50
38237;DHT22;50101;49.438;11.098;2023-09-19T16:08:46;23.60;70.50
38237;DHT22;50101;49.438;11.098;2023-09-19T16:11:17;23.60;70.50
38237;DHT22;50101;49.438;11.098;2023-09-19T16:13:45;23.60;70.40
38237;DHT22;50101;49.438;11.098;2023-09-19T16:16:13;23.60;70.40
38237;DHT22;50101;49.438;11.098;2023-09-19T16:18:46;23.60;70.40
38237;DHT22;50101;49.438;11.098;2023-09-19T16:21:14;23.50;70.30